ADDS METAR Data INFO
IDs: Format: Raw Decoded Include TAF

Data at: 0213 UTC 17 Aug 2018

PAFS 170201Z AUTO 22008KT 10SM OVC070 16/05 A2993 RMK AO2 SLP158 T01560050
PAFS 170101Z AUTO 25010KT 10SM OVC075 16/04 A2993 RMK AO2 SLP157 T01610039
PAFS 170001Z AUTO 22008KT 10SM OVC075 16/04 A2994 RMK AO2 SLP160 T01560044 10161 20094 57003
PAFS 162301Z AUTO 24006KT 10SM OVC065 15/04 A2994 RMK AO2 SLP162 T01500039
PAFS 162201Z AUTO 26007KT 10SM FEW044 OVC070 15/04 A2995 RMK AO2 SLP163 T01500039
PAFS 162101Z AUTO 22003KT 10SM OVC070 14/07 A2995 RMK AO2 SLP164 T01390067 58001
PAFS 162001Z AUTO 25004KT 10SM OVC070 13/07 A2995 RMK AO2 SLP165 T01280072
PAFS 161901Z AUTO 24003KT 10SM OVC070 11/08 A2995 RMK AO2 SLP166 T01110083
PAFS 161801Z AUTO 00000KT 10SM OVC070 09/08 A2996 RMK AO2 SLP166 T00940078 10094 20044 53001
PAFS 161701Z AUTO 00000KT 10SM OVC070 07/07 A2996 RMK AO2 SLP165 T00720072
PAFS 161601Z AUTO 00000KT 10SM OVC070 07/06 A2996 RMK AO2 SLP165 T00670061
PAFS 161501Z AUTO 00000KT 10SM OVC065 05/05 A2995 RMK AO2 SLP163 T00500050 52002
PAFS 161401Z AUTO 00000KT 10SM OVC070 04/04 A2995 RMK AO2 SLP165 T00440044
PAFS 161325Z AUTO 00000KT 10SM FEW001 OVC065 06/06 A2996 RMK AO2
PAFS 161301Z AUTO 00000KT 10SM BKN065 05/05 A2995 RMK AO2 SLP165 T00500050
PAFS 161201Z AUTO 00000KT 10SM OVC065 05/05 A2995 RMK AO2 SLP163 70008 T00500050 10111 20039 51004
PAFS 161101Z AUTO 00000KT 9SM BKN060 04/04 A2995 RMK AO2 SLP162 T00390039
PAFS 161001Z AUTO 00000KT 10SM FEW065 05/05 A2995 RMK AO2 SLP161 T00500050
PAFS 160901Z AUTO 00000KT 10SM CLR 06/06 A2994 RMK AO2 SLP160 T00560056 51008
PAFS 160801Z AUTO 00000KT 10SM CLR 07/06 A2994 RMK AO2 SLP160 T00670061 400670067
PAFS 160701Z AUTO 00000KT 10SM CLR 08/08 A2993 RMK AO2 SLP158 T00830078
PAFS 160601Z AUTO 00000KT 10SM CLR 11/08 A2992 RMK AO2 SLP155 T01110083 10156 20111 55002
PAFS 160501Z AUTO 28004KT 10SM CLR 14/04 A2991 RMK AO2 SLP150 T01440044
PAFS 160401Z AUTO 29006KT 10SM CLR 15/04 A2991 RMK AO2 SLP149 T01500044
PAFS 160301Z AUTO 28008KT 10SM FEW049 15/04 A2991 RMK AO2 SLP151 T01500039 56007
PAFS 160201Z AUTO 31006KT 10SM CLR 14/04 A2992 RMK AO2 SLP152 T01440044
PAFS 160101Z AUTO 23007KT 10SM FEW047 15/04 A2992 RMK AO2 SLP153 T01500039
PAFS 160001Z AUTO 27009G14KT 10SM FEW044 14/05 A2993 RMK AO2 SLP157 T01440050 10144 20089 58002
PAFS 152301Z AUTO 23006KT 10SM BKN048 14/04 A2994 RMK AO2 SLP161 T01390044
PAFS 152201Z AUTO 25006KT 10SM SCT037 OVC046 13/06 A2995 RMK AO2 SLP162 T01280056
PAFS 152101Z AUTO 23007KT 10SM SCT044 12/06 A2995 RMK AO2 SLP162 60000 T01220056 50003
PAFS 152001Z AUTO VRB05KT 10SM FEW019 12/07 A2995 RMK AO2 SLP163 T01170072
PAFS 151941Z AUTO 24005KT 10SM SCT017 11/07 A2995 RMK AO2
PAFS 151918Z AUTO 27007KT 10SM BKN015 11/08 A2995 RMK AO2
PAFS 151901Z AUTO 24007KT 10SM BKN013 11/07 A2995 RMK AO2 SLP164 T01060072
PAFS 151846Z AUTO 22004KT 10SM BKN013 10/07 A2995 RMK AO2
PAFS 151822Z AUTO 23007KT 10SM SCT011 09/07 A2995 RMK AO2
PAFS 151801Z AUTO 25007KT 10SM BKN011 09/07 A2994 RMK AO2 CIG 008V014 SLP160 60008 T00890072 10094 20078 53005
PAFS 151745Z AUTO 25007KT 10SM BKN011 09/08 A2994 RMK AO2
PAFS 151718Z AUTO 24005KT 10SM SCT009 OVC049 09/08 A2994 RMK AO2
PAFS 151701Z AUTO 23007KT 10SM OVC049 08/07 A2994 RMK AO2 SLP159 T00830072
PAFS 151601Z AUTO 21004KT 10SM FEW005 OVC047 08/08 A2993 RMK AO2 RAB15141517E1510 SLP154 P0000 T00780078
PAFS 151532Z AUTO 20003KT 10SM FEW003 SCT013 OVC042 08/08 A2992 RMK AO2 RAB1417E10 P0000
PAFS 151516Z AUTO 20003KT 10SM SCT005 BKN013 OVC036 08/08 A2992 RMK AO2 RAB1417E10 P0000
PAFS 151501Z AUTO 22004KT 5SM -RA BR FEW005 BKN029 OVC034 08/08 A2992 RMK AO2 RAB1417 P0000
PAFS 151442Z AUTO 21006KT 2SM -RA BR SCT005 BKN019 OVC028 08/08 A2992 RMK AO2 VIS 1 1/2V3 RAB17 P0000
PAFS 151430Z AUTO 22006KT 3SM -RA BR SCT005 BKN022 OVC028 08/08 A2992 RMK AO2 RAB17 P0000
PAFS 151415Z AUTO 22006KT 4SM BR FEW005 SCT010 OVC030 08/08 A2992 RMK AO2